Time;durP1;ratioP1;P1;durP2;ratioP2;P2;SDS_P1;SDS_P2;PMS_P1;PMS_P2;Temp;Humidity;BMP_temperature;BMP_pressure;BME280_temperature;BME280_humidity;BME280_pressure;Samples;Min_cycle;Max_cycle;Signal;HPM_P1;HPM_P2
2023/12/31 00:00:13;;;;;;;6.80;2.10;;;;;;;;;;5014446;28;20042;-77
2023/12/31 00:02:38;;;;;;;3.35;2.25;;;;;;;;;;5013774;28;20248;-77
2023/12/31 00:05:04;;;;;;;2.53;1.67;;;;;;;;;;5013959;28;20018;-77
2023/12/31 00:07:29;;;;;;;4.70;1.90;;;;;;;;;;5014429;28;20029;-77
2023/12/31 00:09:55;;;;;;;1.83;1.70;;;;;;;;;;5013914;28;20025;-78
2023/12/31 00:12:20;;;;;;;4.78;1.75;;;;;;;;;;5013720;28;20375;-77
2023/12/31 00:14:45;;;;;;;2.87;1.80;;;;;;;;;;5013787;28;20022;-77
2023/12/31 00:17:10;;;;;;;8.07;2.08;;;;;;;;;;5013775;28;20261;-77
2023/12/31 00:19:36;;;;;;;4.40;2.37;;;;;;;;;;5013370;28;20130;-78
2023/12/31 00:22:01;;;;;;;5.45;1.75;;;;;;;;;;5013807;28;20594;-77
2023/12/31 00:24:26;;;;;;;2.97;2.00;;;;;;;;;;5013672;28;20463;-77
2023/12/31 00:26:52;;;;;;;5.03;1.90;;;;;;;;;;5012312;28;20026;-78
2023/12/31 00:29:17;;;;;;;2.67;1.90;;;;;;;;;;5013393;28;20336;-76
2023/12/31 00:31:42;;;;;;;3.50;1.90;;;;;;;;;;5013356;28;20288;-77
2023/12/31 00:34:08;;;;;;;7.45;2.10;;;;;;;;;;5011454;28;20022;-77
2023/12/31 00:36:34;;;;;;;4.20;1.95;;;;;;;;;;5011665;28;20376;-77
2023/12/31 00:38:59;;;;;;;2.65;1.52;;;;;;;;;;5012018;28;20204;-77
2023/12/31 00:41:25;;;;;;;3.90;1.95;;;;;;;;;;5012488;28;20061;-77
2023/12/31 00:43:50;;;;;;;4.33;2.00;;;;;;;;;;5012732;28;20131;-77
2023/12/31 00:46:15;;;;;;;4.18;1.65;;;;;;;;;;5012485;28;20388;-77
2023/12/31 00:48:40;;;;;;;3.22;1.67;;;;;;;;;;5012233;28;20033;-77
2023/12/31 00:51:05;;;;;;;6.18;1.70;;;;;;;;;;5012194;28;20207;-77
2023/12/31 00:53:32;;;;;;;4.93;2.27;;;;;;;;;;5012020;28;20034;-77
2023/12/31 00:55:57;;;;;;;2.90;1.85;;;;;;;;;;5011146;28;20336;-76
2023/12/31 00:58:22;;;;;;;3.88;2.13;;;;;;;;;;5010759;28;20057;-76
2023/12/31 01:00:47;;;;;;;2.57;1.50;;;;;;;;;;5011936;28;20026;-76
2023/12/31 01:03:13;;;;;;;3.13;1.30;;;;;;;;;;5010950;28;20265;-77
2023/12/31 01:05:38;;;;;;;3.78;1.88;;;;;;;;;;5011917;28;20365;-76
2023/12/31 01:08:04;;;;;;;5.00;1.55;;;;;;;;;;5011963;28;20034;-77
2023/12/31 01:10:29;;;;;;;3.38;1.63;;;;;;;;;;5012208;28;20022;-76
2023/12/31 01:12:55;;;;;;;3.85;1.60;;;;;;;;;;5012469;28;20498;-76
2023/12/31 01:15:22;;;;;;;5.32;1.80;;;;;;;;;;5012047;28;20017;-77
2023/12/31 01:17:47;;;;;;;3.97;1.60;;;;;;;;;;5011854;28;20041;-76
2023/12/31 01:20:14;;;;;;;2.22;1.50;;;;;;;;;;5012249;28;20033;-77
2023/12/31 01:22:39;;;;;;;3.83;1.75;;;;;;;;;;5011793;28;20030;-77
2023/12/31 01:25:04;;;;;;;3.03;1.63;;;;;;;;;;5011589;28;20180;-77
2023/12/31 01:27:29;;;;;;;3.85;1.80;;;;;;;;;;5011750;28;20041;-77
2023/12/31 01:29:55;;;;;;;4.20;2.07;;;;;;;;;;5012091;28;20461;-76
2023/12/31 01:32:20;;;;;;;5.55;2.05;;;;;;;;;;5012357;28;20745;-77
2023/12/31 01:34:46;;;;;;;3.53;1.88;;;;;;;;;;5012118;28;20195;-79
2023/12/31 01:37:11;;;;;;;4.28;1.90;;;;;;;;;;5011811;28;20356;-77
2023/12/31 01:39:36;;;;;;;3.65;1.90;;;;;;;;;;5011771;28;20136;-77
2023/12/31 01:42:01;;;;;;;1.90;1.70;;;;;;;;;;5011932;28;20036;-76
2023/12/31 01:44:28;;;;;;;4.97;1.70;;;;;;;;;;5011775;28;20026;-76
2023/12/31 01:46:53;;;;;;;3.35;1.58;;;;;;;;;;5012517;28;20060;-77
2023/12/31 01:49:18;;;;;;;6.57;1.95;;;;;;;;;;5011717;28;20399;-77
2023/12/31 01:51:44;;;;;;;2.70;1.67;;;;;;;;;;5012007;28;20119;-76
2023/12/31 01:54:09;;;;;;;3.13;1.50;;;;;;;;;;5011733;28;20022;-76
2023/12/31 01:56:37;;;;;;;5.78;2.15;;;;;;;;;;5011443;28;20061;-78
2023/12/31 01:59:03;;;;;;;3.92;1.52;;;;;;;;;;5011653;28;20081;-76
2023/12/31 02:01:29;;;;;;;3.83;1.48;;;;;;;;;;5011536;28;20124;-76
2023/12/31 02:03:54;;;;;;;3.58;1.58;;;;;;;;;;5011603;28;20132;-76
2023/12/31 02:06:19;;;;;;;2.88;1.60;;;;;;;;;;5011944;28;20026;-76
2023/12/31 02:08:45;;;;;;;1.90;1.50;;;;;;;;;;5015070;28;20414;-77
2023/12/31 02:11:10;;;;;;;2.10;1.40;;;;;;;;;;5015197;28;20356;-76
2023/12/31 02:13:35;;;;;;;2.10;1.40;;;;;;;;;;5015379;28;20056;-77
2023/12/31 02:16:01;;;;;;;2.70;1.67;;;;;;;;;;5015227;28;20374;-77
2023/12/31 02:18:26;;;;;;;4.30;1.50;;;;;;;;;;5015161;28;20819;-77
2023/12/31 02:20:51;;;;;;;5.35;1.70;;;;;;;;;;5014627;28;20418;-76
2023/12/31 02:23:17;;;;;;;2.37;1.50;;;;;;;;;;5015068;28;20101;-77
2023/12/31 02:25:43;;;;;;;2.88;1.52;;;;;;;;;;5014999;28;20336;-76
2023/12/31 02:28:08;;;;;;;2.90;1.35;;;;;;;;;;5014444;28;20460;-77
2023/12/31 02:30:34;;;;;;;2.30;1.50;;;;;;;;;;5014727;28;20114;-76
2023/12/31 02:32:59;;;;;;;2.17;1.50;;;;;;;;;;5015486;28;20097;-77
2023/12/31 02:35:24;;;;;;;1.40;1.30;;;;;;;;;;5014557;28;20359;-78
2023/12/31 02:37:49;;;;;;;3.10;1.67;;;;;;;;;;5015203;28;20060;-76
2023/12/31 02:40:15;;;;;;;2.93;1.77;;;;;;;;;;5014336;28;20268;-75
2023/12/31 02:42:41;;;;;;;4.30;1.38;;;;;;;;;;5014466;28;20285;-75
2023/12/31 02:45:07;;;;;;;1.40;1.15;;;;;;;;;;5013241;28;20026;-75
2023/12/31 02:47:32;;;;;;;2.33;1.42;;;;;;;;;;5014629;28;20366;-75
2023/12/31 02:49:57;;;;;;;4.80;1.65;;;;;;;;;;5014967;28;20018;-75
2023/12/31 02:52:22;;;;;;;1.70;1.20;;;;;;;;;;5014199;28;20386;-75
2023/12/31 02:54:48;;;;;;;2.03;1.15;;;;;;;;;;5012653;28;20054;-75
2023/12/31 02:57:13;;;;;;;5.03;1.60;;;;;;;;;;5014235;28;20030;-75
2023/12/31 02:59:38;;;;;;;2.15;1.42;;;;;;;;;;5013956;28;20034;-75
2023/12/31 03:02:03;;;;;;;3.70;1.50;;;;;;;;;;5014067;28;20026;-75
2023/12/31 03:04:29;;;;;;;4.05;1.48;;;;;;;;;;5014381;28;20407;-75
2023/12/31 03:06:54;;;;;;;5.40;1.45;;;;;;;;;;5014565;28;20060;-74
2023/12/31 03:09:21;;;;;;;2.10;1.37;;;;;;;;;;5013970;28;20108;-75
2023/12/31 03:11:47;;;;;;;7.80;1.80;;;;;;;;;;5013986;28;20261;-75
2023/12/31 03:14:15;;;;;;;3.65;1.50;;;;;;;;;;5014102;28;20033;-75
2023/12/31 03:16:44;;;;;;;3.05;1.45;;;;;;;;;;5013582;28;20037;-76
2023/12/31 03:19:13;;;;;;;1.98;1.40;;;;;;;;;;5013541;28;20164;-75
2023/12/31 03:21:39;;;;;;;4.53;1.70;;;;;;;;;;5013675;28;20022;-75
2023/12/31 03:24:04;;;;;;;2.10;1.52;;;;;;;;;;5014143;28;20032;-76
2023/12/31 03:26:29;;;;;;;3.38;1.70;;;;;;;;;;5014056;28;20022;-75
2023/12/31 03:28:54;;;;;;;2.63;1.33;;;;;;;;;;5013485;28;20036;-78
2023/12/31 03:31:20;;;;;;;2.67;1.50;;;;;;;;;;5014011;28;20268;-76
2023/12/31 03:33:46;;;;;;;4.15;1.70;;;;;;;;;;5013611;28;20257;-76
2023/12/31 03:36:11;;;;;;;2.13;1.50;;;;;;;;;;5013587;28;20092;-75
2023/12/31 03:38:36;;;;;;;1.40;1.30;;;;;;;;;;5013539;28;20022;-75
2023/12/31 03:41:02;;;;;;;5.20;1.60;;;;;;;;;;5013173;28;20442;-75
2023/12/31 03:43:27;;;;;;;4.90;1.60;;;;;;;;;;5013436;28;20271;-75
2023/12/31 03:45:52;;;;;;;2.78;1.88;;;;;;;;;;5013276;28;20072;-75
2023/12/31 03:48:18;;;;;;;1.77;1.52;;;;;;;;;;5013209;28;20144;-75
2023/12/31 03:50:43;;;;;;;3.42;1.58;;;;;;;;;;5012967;28;20148;-76
2023/12/31 03:53:08;;;;;;;4.45;1.80;;;;;;;;;;5013257;28;20030;-76
2023/12/31 03:55:33;;;;;;;5.17;1.77;;;;;;;;;;5013191;28;20141;-75
2023/12/31 03:57:59;;;;;;;3.83;1.70;;;;;;;;;;5012746;28;20573;-76
2023/12/31 04:00:24;;;;;;;6.28;1.90;;;;;;;;;;5011500;28;20490;-75
2023/12/31 04:02:49;;;;;;;3.33;1.65;;;;;;;;;;5012234;28;20026;-75
2023/12/31 04:05:14;;;;;;;3.03;1.60;;;;;;;;;;5013019;28;20101;-75
2023/12/31 04:07:39;;;;;;;4.05;1.67;;;;;;;;;;5012762;28;20291;-75
2023/12/31 04:10:05;;;;;;;4.00;2.00;;;;;;;;;;5013176;28;20455;-75
2023/12/31 04:12:30;;;;;;;3.00;1.70;;;;;;;;;;5013095;28;20265;-76
2023/12/31 04:14:55;;;;;;;3.43;1.73;;;;;;;;;;5012712;28;20022;-76
2023/12/31 04:17:20;;;;;;;2.17;1.73;;;;;;;;;;5012900;28;20745;-75
2023/12/31 04:19:46;;;;;;;3.78;2.00;;;;;;;;;;5012653;28;20053;-75
2023/12/31 04:22:11;;;;;;;4.75;2.05;;;;;;;;;;5012700;28;20017;-75
2023/12/31 04:24:36;;;;;;;2.95;2.33;;;;;;;;;;5013101;28;20018;-76
2023/12/31 04:27:01;;;;;;;4.70;1.98;;;;;;;;;;5012855;28;20029;-76
2023/12/31 04:29:27;;;;;;;7.05;2.00;;;;;;;;;;5012366;28;20034;-75
2023/12/31 04:31:52;;;;;;;3.70;1.70;;;;;;;;;;5012868;28;20133;-75
2023/12/31 04:34:17;;;;;;;4.25;1.90;;;;;;;;;;5012658;28;20025;-75
2023/12/31 04:36:45;;;;;;;5.53;1.83;;;;;;;;;;5012583;28;20026;-75
2023/12/31 04:39:11;;;;;;;1.88;1.65;;;;;;;;;;5012703;28;20344;-76
2023/12/31 04:41:36;;;;;;;3.05;1.80;;;;;;;;;;5012488;28;20100;-76
2023/12/31 04:44:02;;;;;;;3.83;1.70;;;;;;;;;;5012665;28;20033;-76
2023/12/31 04:46:27;;;;;;;2.05;1.40;;;;;;;;;;5012062;28;20140;-76
2023/12/31 04:48:52;;;;;;;2.95;1.80;;;;;;;;;;5012247;28;20413;-76
2023/12/31 04:51:27;;;;;;;3.95;2.20;;;;;;;;;;5012273;28;20076;-75
2023/12/31 04:53:52;;;;;;;3.08;1.70;;;;;;;;;;5011973;28;20479;-76
2023/12/31 04:56:19;;;;;;;3.92;2.15;;;;;;;;;;5012272;28;20085;-75
2023/12/31 04:58:44;;;;;;;2.95;1.50;;;;;;;;;;5012134;28;20459;-75
2023/12/31 05:01:09;;;;;;;4.93;1.88;;;;;;;;;;5011764;28;20053;-77
2023/12/31 05:03:35;;;;;;;1.83;1.42;;;;;;;;;;5012085;28;20068;-76
2023/12/31 05:06:00;;;;;;;2.10;1.50;;;;;;;;;;5012378;28;20028;-76
2023/12/31 05:08:25;;;;;;;3.00;1.60;;;;;;;;;;5012252;28;20292;-76
2023/12/31 05:10:51;;;;;;;1.90;1.60;;;;;;;;;;5011798;28;20269;-75
2023/12/31 05:13:16;;;;;;;2.40;1.60;;;;;;;;;;5012516;28;20018;-76
2023/12/31 05:15:41;;;;;;;2.73;1.50;;;;;;;;;;5012022;28;20021;-76
2023/12/31 05:18:06;;;;;;;2.80;1.55;;;;;;;;;;5011613;28;20737;-76
2023/12/31 05:20:32;;;;;;;3.27;1.80;;;;;;;;;;5011906;28;20463;-76
2023/12/31 05:22:57;;;;;;;2.27;1.47;;;;;;;;;;5012236;28;20264;-75
2023/12/31 05:25:22;;;;;;;1.70;1.60;;;;;;;;;;5011797;28;20260;-76
2023/12/31 05:27:47;;;;;;;5.10;1.77;;;;;;;;;;5011794;28;20045;-75
2023/12/31 05:30:13;;;;;;;2.53;1.70;;;;;;;;;;5011773;28;20106;-79
2023/12/31 05:32:38;;;;;;;2.30;1.55;;;;;;;;;;5012843;28;20045;-76
2023/12/31 05:35:03;;;;;;;2.75;1.83;;;;;;;;;;5011535;28;20463;-76
2023/12/31 05:37:29;;;;;;;3.13;1.77;;;;;;;;;;5011791;28;20452;-76
2023/12/31 05:39:54;;;;;;;4.28;1.85;;;;;;;;;;5012329;28;20096;-76
2023/12/31 05:42:19;;;;;;;3.33;2.03;;;;;;;;;;5015229;28;20025;-76
2023/12/31 05:44:44;;;;;;;4.43;1.90;;;;;;;;;;5015763;28;20117;-75
2023/12/31 05:47:10;;;;;;;2.00;1.80;;;;;;;;;;5015578;28;20385;-74
2023/12/31 05:49:35;;;;;;;3.22;1.85;;;;;;;;;;5015778;28;20725;-75
2023/12/31 05:52:01;;;;;;;2.00;1.77;;;;;;;;;;5015434;28;20342;-75
2023/12/31 05:54:26;;;;;;;2.65;1.90;;;;;;;;;;5015208;28;20354;-76
2023/12/31 05:56:51;;;;;;;3.17;2.00;;;;;;;;;;5015345;28;20025;-76
2023/12/31 05:59:17;;;;;;;1.80;1.60;;;;;;;;;;5015183;28;20030;-76
2023/12/31 06:01:42;;;;;;;3.15;2.10;;;;;;;;;;5015792;28;20117;-75
2023/12/31 06:04:07;;;;;;;2.90;1.80;;;;;;;;;;5015130;28;20124;-77
2023/12/31 06:06:33;;;;;;;5.22;2.00;;;;;;;;;;5015635;28;20300;-76
2023/12/31 06:08:58;;;;;;;3.22;2.10;;;;;;;;;;5015244;28;20022;-76
2023/12/31 06:11:24;;;;;;;4.05;1.85;;;;;;;;;;5015208;28;20104;-75
2023/12/31 06:13:49;;;;;;;2.73;1.77;;;;;;;;;;5014777;28;20049;-75
2023/12/31 06:16:14;;;;;;;3.67;2.00;;;;;;;;;;5015091;28;20676;-76
2023/12/31 06:18:39;;;;;;;2.43;2.00;;;;;;;;;;5015077;28;20757;-75
2023/12/31 06:21:05;;;;;;;3.30;2.03;;;;;;;;;;5015024;28;20261;-76
2023/12/31 06:23:30;;;;;;;4.13;1.80;;;;;;;;;;5014862;28;20378;-75
2023/12/31 06:25:56;;;;;;;2.47;2.07;;;;;;;;;;5014955;28;20122;-76
2023/12/31 06:28:21;;;;;;;5.30;2.20;;;;;;;;;;5014954;28;20288;-75
2023/12/31 06:30:47;;;;;;;3.65;2.20;;;;;;;;;;5014843;28;20030;-75
2023/12/31 06:33:12;;;;;;;4.32;2.22;;;;;;;;;;5014930;28;20036;-75
2023/12/31 06:35:37;;;;;;;2.45;1.83;;;;;;;;;;5014959;28;20034;-76
2023/12/31 06:38:02;;;;;;;2.87;1.90;;;;;;;;;;5013379;28;20379;-75
2023/12/31 06:40:27;;;;;;;2.53;2.17;;;;;;;;;;5014756;28;20295;-75
2023/12/31 06:42:53;;;;;;;5.90;2.20;;;;;;;;;;5014945;28;20026;-75
2023/12/31 06:45:18;;;;;;;2.43;2.13;;;;;;;;;;5014785;28;20285;-75
2023/12/31 06:47:43;;;;;;;4.30;2.17;;;;;;;;;;5014307;28;20696;-76
2023/12/31 06:50:10;;;;;;;3.90;2.47;;;;;;;;;;5014468;28;20779;-75
2023/12/31 06:52:36;;;;;;;2.95;1.95;;;;;;;;;;5013103;28;20293;-75
2023/12/31 06:55:01;;;;;;;4.22;2.28;;;;;;;;;;5014477;28;20050;-75
2023/12/31 06:57:26;;;;;;;2.90;2.55;;;;;;;;;;5014456;28;20101;-75
2023/12/31 06:59:51;;;;;;;3.10;2.57;;;;;;;;;;5014831;28;20057;-75
2023/12/31 07:02:16;;;;;;;4.17;2.20;;;;;;;;;;5014212;28;20275;-75
2023/12/31 07:04:42;;;;;;;6.45;2.47;;;;;;;;;;5014248;28;20311;-76
2023/12/31 07:07:07;;;;;;;4.88;2.50;;;;;;;;;;5014706;28;20018;-75
2023/12/31 07:09:32;;;;;;;3.25;2.40;;;;;;;;;;5013992;28;20111;-76
2023/12/31 07:11:57;;;;;;;4.63;2.53;;;;;;;;;;5014135;28;20123;-76
2023/12/31 07:14:24;;;;;;;3.17;2.37;;;;;;;;;;5014765;28;20030;-76
2023/12/31 07:16:49;;;;;;;2.92;2.40;;;;;;;;;;5014227;28;20264;-76
2023/12/31 07:19:15;;;;;;;6.38;2.88;;;;;;;;;;5013804;28;20022;-76
2023/12/31 07:21:41;;;;;;;2.95;2.40;;;;;;;;;;5013807;28;20097;-76
2023/12/31 07:24:06;;;;;;;5.90;2.53;;;;;;;;;;5013730;28;20025;-77
2023/12/31 07:26:31;;;;;;;4.78;2.60;;;;;;;;;;5013663;28;20374;-78
2023/12/31 07:28:57;;;;;;;2.97;2.30;;;;;;;;;;5013728;28;20360;-77
2023/12/31 07:31:22;;;;;;;3.38;2.65;;;;;;;;;;5013816;28;20768;-76
2023/12/31 07:33:47;;;;;;;2.60;2.20;;;;;;;;;;5014183;28;20033;-76
2023/12/31 07:36:13;;;;;;;3.97;2.60;;;;;;;;;;5014592;28;20113;-75
2023/12/31 07:38:38;;;;;;;3.75;2.80;;;;;;;;;;5013694;28;20033;-76
2023/12/31 07:41:03;;;;;;;4.32;2.60;;;;;;;;;;5013662;28;20061;-75
2023/12/31 07:43:28;;;;;;;4.60;2.65;;;;;;;;;;5013637;28;20030;-75
2023/12/31 07:45:54;;;;;;;3.00;2.70;;;;;;;;;;5013691;28;20064;-74
2023/12/31 07:48:19;;;;;;;3.13;2.70;;;;;;;;;;5013307;28;20084;-76
2023/12/31 07:50:44;;;;;;;3.53;2.88;;;;;;;;;;5011801;28;20269;-76
2023/12/31 07:53:09;;;;;;;5.83;2.80;;;;;;;;;;5013626;28;20109;-75
2023/12/31 07:55:35;;;;;;;3.05;2.50;;;;;;;;;;5012957;28;20347;-79
2023/12/31 07:58:00;;;;;;;4.75;2.80;;;;;;;;;;5013826;28;20113;-75
2023/12/31 08:00:26;;;;;;;4.45;2.65;;;;;;;;;;5013229;28;20038;-75
2023/12/31 08:02:51;;;;;;;4.93;3.17;;;;;;;;;;5013211;28;20049;-76
2023/12/31 08:05:16;;;;;;;5.60;3.17;;;;;;;;;;5013027;28;20065;-75
2023/12/31 08:07:42;;;;;;;3.70;2.95;;;;;;;;;;5012737;28;20029;-75
2023/12/31 08:10:07;;;;;;;7.00;3.70;;;;;;;;;;5012813;28;20026;-75
2023/12/31 08:12:33;;;;;;;3.35;3.03;;;;;;;;;;5014107;28;20105;-74
2023/12/31 08:14:58;;;;;;;5.07;3.20;;;;;;;;;;5013964;28;20426;-75
2023/12/31 08:17:24;;;;;;;4.87;3.00;;;;;;;;;;5013858;28;20265;-77
2023/12/31 08:19:49;;;;;;;4.97;2.83;;;;;;;;;;5013597;28;20276;-75
2023/12/31 08:22:15;;;;;;;2.78;2.47;;;;;;;;;;5013530;28;20076;-75
2023/12/31 08:24:40;;;;;;;2.30;2.10;;;;;;;;;;5013516;28;20100;-76
2023/12/31 08:27:05;;;;;;;2.33;1.60;;;;;;;;;;5013246;28;20273;-78
2023/12/31 08:29:30;;;;;;;2.30;1.53;;;;;;;;;;5013683;28;20037;-76
2023/12/31 08:31:56;;;;;;;1.33;1.17;;;;;;;;;;5013795;28;20280;-77
2023/12/31 08:34:21;;;;;;;3.45;1.27;;;;;;;;;;5013695;28;20462;-76
2023/12/31 08:36:46;;;;;;;4.83;1.30;;;;;;;;;;5013702;28;20080;-77
2023/12/31 08:39:11;;;;;;;1.02;0.95;;;;;;;;;;5013596;28;20297;-77
2023/12/31 08:41:36;;;;;;;1.88;0.95;;;;;;;;;;5013718;28;20026;-76
2023/12/31 08:44:02;;;;;;;4.97;1.27;;;;;;;;;;5013673;28;20028;-76
2023/12/31 08:46:27;;;;;;;2.15;0.90;;;;;;;;;;5013638;28;20272;-75
2023/12/31 08:48:53;;;;;;;3.55;1.20;;;;;;;;;;5013559;28;20459;-76
2023/12/31 08:51:19;;;;;;;1.83;1.23;;;;;;;;;;5012331;28;20424;-76
2023/12/31 08:53:44;;;;;;;4.03;1.17;;;;;;;;;;5013070;28;20265;-76
2023/12/31 08:56:09;;;;;;;5.85;1.60;;;;;;;;;;5013778;28;20053;-77
2023/12/31 08:58:34;;;;;;;3.15;1.00;;;;;;;;;;5012613;28;20494;-76
2023/12/31 09:00:59;;;;;;;4.85;1.60;;;;;;;;;;5012823;28;20554;-76
2023/12/31 09:03:25;;;;;;;5.07;1.50;;;;;;;;;;5012909;28;20474;-75
2023/12/31 09:05:50;;;;;;;4.13;1.27;;;;;;;;;;5012638;28;20382;-76
2023/12/31 09:08:16;;;;;;;9.70;1.90;;;;;;;;;;5012700;28;20037;-76
2023/12/31 09:10:42;;;;;;;2.92;1.33;;;;;;;;;;5012829;28;20269;-77
2023/12/31 09:13:07;;;;;;;3.78;1.42;;;;;;;;;;5013349;28;20075;-76
2023/12/31 09:15:32;;;;;;;6.00;1.13;;;;;;;;;;5012032;28;20022;-77
2023/12/31 09:17:57;;;;;;;3.85;1.40;;;;;;;;;;5012868;28;20041;-77
2023/12/31 09:20:23;;;;;;;3.45;1.20;;;;;;;;;;5012428;28;20029;-78
2023/12/31 09:22:52;;;;;;;3.03;1.25;;;;;;;;;;5012916;28;20029;-77
2023/12/31 09:25:17;;;;;;;6.53;1.50;;;;;;;;;;5013237;28;20395;-76
2023/12/31 09:27:43;;;;;;;2.63;1.23;;;;;;;;;;5012577;28;20111;-76
2023/12/31 09:30:08;;;;;;;3.35;1.30;;;;;;;;;;5012488;28;20045;-76
2023/12/31 09:32:33;;;;;;;3.53;1.10;;;;;;;;;;5012591;28;20061;-77
2023/12/31 09:34:58;;;;;;;1.73;1.10;;;;;;;;;;5012315;28;20181;-75
2023/12/31 09:37:24;;;;;;;6.03;1.20;;;;;;;;;;5013102;28;20030;-75
2023/12/31 09:39:49;;;;;;;2.55;1.10;;;;;;;;;;5012362;28;20269;-76
2023/12/31 09:42:27;;;;;;;2.05;0.90;;;;;;;;;;5012620;28;20026;-76
2023/12/31 09:44:54;;;;;;;4.05;1.15;;;;;;;;;;5012580;28;20105;-76
2023/12/31 09:47:19;;;;;;;3.58;1.48;;;;;;;;;;5012495;28;20072;-76
2023/12/31 09:49:44;;;;;;;1.48;1.00;;;;;;;;;;5013292;28;20034;-76
2023/12/31 09:52:10;;;;;;;5.20;1.23;;;;;;;;;;5013573;28;20018;-77
2023/12/31 09:54:37;;;;;;;1.73;0.90;;;;;;;;;;5013754;28;20525;-77
2023/12/31 09:57:04;;;;;;;4.70;1.20;;;;;;;;;;5013597;28;20253;-80
2023/12/31 09:59:29;;;;;;;1.92;0.80;;;;;;;;;;5019838;28;20116;-78
2023/12/31 10:01:56;;;;;;;3.10;1.10;;;;;;;;;;5020434;28;20513;-80
2023/12/31 10:04:22;;;;;;;2.88;0.90;;;;;;;;;;5015961;28;20076;-78
2023/12/31 10:06:47;;;;;;;2.35;0.77;;;;;;;;;;5012898;28;20026;-80
2023/12/31 10:09:17;;;;;;;2.33;1.10;;;;;;;;;;5012271;28;20084;-76
2023/12/31 10:11:42;;;;;;;4.50;1.52;;;;;;;;;;5012581;28;20488;-78
2023/12/31 10:14:08;;;;;;;2.92;1.15;;;;;;;;;;5012691;28;20017;-77
2023/12/31 10:16:34;;;;;;;5.47;1.30;;;;;;;;;;5012337;28;20026;-77
2023/12/31 10:18:59;;;;;;;2.00;1.15;;;;;;;;;;5012404;28;20045;-79
2023/12/31 10:21:25;;;;;;;2.47;1.17;;;;;;;;;;5012754;28;20062;-80
2023/12/31 10:23:51;;;;;;;3.00;1.30;;;;;;;;;;5012631;28;20025;-79
2023/12/31 10:26:16;;;;;;;3.80;0.98;;;;;;;;;;5012249;28;20617;-75
2023/12/31 10:28:42;;;;;;;2.25;1.30;;;;;;;;;;5015541;28;20036;-76
2023/12/31 10:31:07;;;;;;;3.53;1.70;;;;;;;;;;5015684;28;20229;-76
2023/12/31 10:33:36;;;;;;;3.13;1.40;;;;;;;;;;5015569;28;20493;-76
2023/12/31 10:36:03;;;;;;;2.78;1.45;;;;;;;;;;5016045;28;20030;-74
2023/12/31 10:38:28;;;;;;;7.53;1.52;;;;;;;;;;5014945;28;20034;-76
2023/12/31 10:41:07;;;;;;;1.77;1.35;;;;;;;;;;5014942;28;20022;-77
2023/12/31 10:43:32;;;;;;;9.23;2.00;;;;;;;;;;5015848;28;20024;-76
2023/12/31 10:45:58;;;;;;;1.77;1.65;;;;;;;;;;5015396;28;20354;-75
2023/12/31 10:48:23;;;;;;;4.82;1.90;;;;;;;;;;5015395;28;20030;-74
2023/12/31 10:50:49;;;;;;;3.60;1.90;;;;;;;;;;5015201;28;20447;-74
2023/12/31 10:53:15;;;;;;;4.00;2.00;;;;;;;;;;5015113;28;20156;-76
2023/12/31 10:55:41;;;;;;;4.45;1.65;;;;;;;;;;5014725;28;20088;-76
2023/12/31 10:58:07;;;;;;;4.15;1.42;;;;;;;;;;5015601;28;20025;-76
2023/12/31 11:00:32;;;;;;;6.57;1.60;;;;;;;;;;5015098;28;20045;-77
2023/12/31 11:02:59;;;;;;;6.07;1.88;;;;;;;;;;5014969;28;20157;-75
2023/12/31 11:05:25;;;;;;;3.58;2.10;;;;;;;;;;5015028;28;20034;-77
2023/12/31 11:07:50;;;;;;;3.47;1.70;;;;;;;;;;5015388;28;20038;-76
2023/12/31 11:10:17;;;;;;;3.25;1.55;;;;;;;;;;5014928;28;20347;-78
2023/12/31 11:12:48;;;;;;;7.70;1.27;;;;;;;;;;5013661;28;20080;-77
2023/12/31 11:15:15;;;;;;;2.28;1.05;;;;;;;;;;5015060;28;20030;-77
2023/12/31 11:17:40;;;;;;;1.90;1.27;;;;;;;;;;5014994;28;20045;-76
2023/12/31 11:20:17;;;;;;;2.90;1.30;;;;;;;;;;5015043;28;20026;-76
2023/12/31 11:22:53;;;;;;;3.40;1.27;;;;;;;;;;5014216;28;20014;-76
2023/12/31 11:25:21;;;;;;;3.55;1.20;;;;;;;;;;5014074;28;20394;-77
2023/12/31 11:27:48;;;;;;;5.05;1.30;;;;;;;;;;5014565;28;20045;-76
2023/12/31 11:30:14;;;;;;;8.68;1.70;;;;;;;;;;5013430;28;20089;-76
2023/12/31 11:32:40;;;;;;;7.38;1.73;;;;;;;;;;5013809;28;20046;-75
2023/12/31 11:35:06;;;;;;;3.80;1.50;;;;;;;;;;5013131;28;20093;-76
2023/12/31 11:37:35;;;;;;;9.50;1.60;;;;;;;;;;5013530;28;20056;-76
2023/12/31 11:40:00;;;;;;;7.25;1.88;;;;;;;;;;5013744;28;20022;-77
2023/12/31 11:42:25;;;;;;;10.50;1.73;;;;;;;;;;5014326;28;20422;-76
2023/12/31 11:44:50;;;;;;;11.70;1.88;;;;;;;;;;5014195;28;20032;-74
2023/12/31 11:47:20;;;;;;;11.10;2.30;;;;;;;;;;5014155;28;20149;-75
2023/12/31 11:49:46;;;;;;;5.95;1.45;;;;;;;;;;5013846;28;20049;-75
2023/12/31 11:52:11;;;;;;;8.38;1.95;;;;;;;;;;5013678;28;20466;-75
2023/12/31 11:54:38;;;;;;;7.80;1.95;;;;;;;;;;5013582;28;20042;-77
2023/12/31 11:57:04;;;;;;;5.75;1.70;;;;;;;;;;5013649;28;20080;-76
2023/12/31 11:59:35;;;;;;;8.15;1.88;;;;;;;;;;5013728;28;20053;-80
2023/12/31 12:02:02;;;;;;;10.90;2.50;;;;;;;;;;5013642;28;20017;-75
2023/12/31 12:04:28;;;;;;;6.68;1.85;;;;;;;;;;5013919;28;20025;-80
2023/12/31 12:06:53;;;;;;;6.30;1.95;;;;;;;;;;5013713;28;20459;-78
2023/12/31 12:09:26;;;;;;;9.63;2.05;;;;;;;;;;5012511;28;20084;-77
2023/12/31 12:11:51;;;;;;;7.75;1.80;;;;;;;;;;5012794;28;20367;-77
2023/12/31 12:14:16;;;;;;;6.05;2.40;;;;;;;;;;5013866;28;20093;-77
2023/12/31 12:16:42;;;;;;;7.07;2.13;;;;;;;;;;5013730;28;20351;-77
2023/12/31 12:19:07;;;;;;;7.72;2.25;;;;;;;;;;5014067;28;20038;-77
2023/12/31 12:21:33;;;;;;;8.82;2.13;;;;;;;;;;5014735;28;20068;-76
2023/12/31 12:23:58;;;;;;;9.02;1.98;;;;;;;;;;5014599;28;20120;-79
2023/12/31 12:26:25;;;;;;;4.57;1.73;;;;;;;;;;5014149;28;20026;-81
2023/12/31 12:28:50;;;;;;;6.88;1.73;;;;;;;;;;5013464;28;20042;-77
2023/12/31 12:31:17;;;;;;;8.20;1.88;;;;;;;;;;5013063;28;20018;-78
2023/12/31 12:33:44;;;;;;;9.35;2.03;;;;;;;;;;5013326;28;20097;-76
2023/12/31 12:36:09;;;;;;;9.15;2.05;;;;;;;;;;5013362;28;20101;-79
2023/12/31 12:38:35;;;;;;;14.05;2.15;;;;;;;;;;5013287;28;20065;-76
2023/12/31 12:41:01;;;;;;;9.20;1.92;;;;;;;;;;5013521;28;20026;-76
2023/12/31 12:43:31;;;;;;;4.65;1.70;;;;;;;;;;5013110;28;20022;-76
2023/12/31 12:46:10;;;;;;;10.95;2.05;;;;;;;;;;5013104;28;20102;-78
2023/12/31 12:48:53;;;;;;;10.90;2.30;;;;;;;;;;5011849;28;20037;-78
2023/12/31 12:51:19;;;;;;;9.70;2.50;;;;;;;;;;5013361;28;20029;-77
2023/12/31 12:53:44;;;;;;;9.52;2.17;;;;;;;;;;5012909;28;20378;-78
2023/12/31 12:56:09;;;;;;;6.13;2.33;;;;;;;;;;5012442;28;20073;-80
2023/12/31 12:58:34;;;;;;;9.40;2.77;;;;;;;;;;5012844;28;20049;-79
2023/12/31 13:01:00;;;;;;;12.33;2.10;;;;;;;;;;5012952;28;20292;-80
2023/12/31 13:03:25;;;;;;;6.05;1.73;;;;;;;;;;5013540;28;20634;-81
2023/12/31 13:05:50;;;;;;;17.63;3.28;;;;;;;;;;5011553;28;20052;-79
2023/12/31 13:08:15;;;;;;;8.98;2.33;;;;;;;;;;5011467;28;20038;-80
2023/12/31 13:10:41;;;;;;;10.25;2.85;;;;;;;;;;5013364;28;20076;-82
2023/12/31 13:13:06;;;;;;;9.75;2.33;;;;;;;;;;5012365;28;20378;-77
2023/12/31 13:15:33;;;;;;;10.90;2.22;;;;;;;;;;5012918;28;20433;-78
2023/12/31 13:17:58;;;;;;;9.15;2.42;;;;;;;;;;5012480;28;20520;-80
2023/12/31 13:20:24;;;;;;;7.80;1.90;;;;;;;;;;5012673;28;20033;-78
2023/12/31 13:22:50;;;;;;;9.05;2.25;;;;;;;;;;5012763;28;20037;-79
2023/12/31 13:25:15;;;;;;;11.68;2.60;;;;;;;;;;5013102;28;20033;-78
2023/12/31 13:27:40;;;;;;;12.13;2.33;;;;;;;;;;5012678;28;20497;-82
2023/12/31 13:30:06;;;;;;;16.77;8.35;;;;;;;;;;5012678;28;20454;-83
2023/12/31 13:32:31;;;;;;;8.32;2.15;;;;;;;;;;5012283;28;20393;-81
2023/12/31 13:34:56;;;;;;;9.10;2.08;;;;;;;;;;5012890;28;20022;-76
2023/12/31 13:37:22;;;;;;;9.30;2.10;;;;;;;;;;5012252;28;20041;-79
2023/12/31 13:39:47;;;;;;;14.63;2.63;;;;;;;;;;5012668;28;20265;-78
2023/12/31 13:42:12;;;;;;;9.90;2.27;;;;;;;;;;5012033;28;20494;-76
2023/12/31 13:44:37;;;;;;;9.18;2.20;;;;;;;;;;5010826;28;20803;-78
2023/12/31 13:47:03;;;;;;;5.32;1.90;;;;;;;;;;5012076;28;20021;-78
2023/12/31 13:49:29;;;;;;;3.80;1.83;;;;;;;;;;5011900;28;20443;-78
2023/12/31 13:51:54;;;;;;;11.23;2.80;;;;;;;;;;5012190;28;20056;-78
2023/12/31 13:54:21;;;;;;;6.40;2.13;;;;;;;;;;5012877;28;20253;-81
2023/12/31 13:56:46;;;;;;;11.60;2.95;;;;;;;;;;5012204;28;20069;-79
2023/12/31 13:59:12;;;;;;;11.85;2.80;;;;;;;;;;5012413;28;20467;-81
2023/12/31 14:01:37;;;;;;;11.43;2.55;;;;;;;;;;5012826;28;20404;-78
2023/12/31 14:04:04;;;;;;;14.48;3.03;;;;;;;;;;5015774;28;20079;-79
2023/12/31 14:06:29;;;;;;;9.60;2.67;;;;;;;;;;5015870;28;20028;-79
2023/12/31 14:08:54;;;;;;;6.95;2.30;;;;;;;;;;5015574;28;20383;-81
2023/12/31 14:11:20;;;;;;;7.35;1.95;;;;;;;;;;5016608;28;20071;-78
2023/12/31 14:13:45;;;;;;;11.65;2.92;;;;;;;;;;5016054;28;20188;-82
2023/12/31 14:16:11;;;;;;;13.25;2.88;;;;;;;;;;5015508;28;20030;-81
2023/12/31 14:18:36;;;;;;;13.20;2.53;;;;;;;;;;5015880;28;20113;-79
2023/12/31 14:21:01;;;;;;;10.98;2.55;;;;;;;;;;5016006;28;20497;-78
2023/12/31 14:23:26;;;;;;;7.43;2.35;;;;;;;;;;5015635;28;20481;-79
2023/12/31 14:25:52;;;;;;;13.50;2.47;;;;;;;;;;5015596;28;20350;-77
2023/12/31 14:28:17;;;;;;;9.27;1.95;;;;;;;;;;5015664;28;20029;-77
2023/12/31 14:30:43;;;;;;;8.23;2.27;;;;;;;;;;5015496;28;20025;-79
2023/12/31 14:33:10;;;;;;;16.63;2.63;;;;;;;;;;5015302;28;20257;-76